Portada
METAR-TAF:

METAR-TAF

Aeroports :

Kindersley, Saskatchewan, Canadà

latitud: 51-31N, longitud: 109-10W, altitud: 694 m

Observació

L'informe es va fer fa 26 minuts, a les 02:00 UTC
Vent 14 kt del Sud
Temperatura -1°C
Humitat 86%
Pressió 1003 hPa
Visibilitat: 24.1 km
Escasses núvols a una alçada de 25000 ft

METAR: CYKY 250200Z 18014KT 15SM FEW250 M01/M03 A2961 RMK CI3 SLP067

Hora: 20:26 (02:26 UTC)


TAF: manca

Observacions i pronòstics meteorològics de més de 4000 aeroports (METAR i TAF).

Les estacions disponibles són els punts grocs i vermells al mapa.

Posi el ratolí al punt desitjat per veure el nom de l'estació.

Feu clic per veure les observacions i els pronòstics meteorològics.

Per canviar el mapa: feu clic els botons verds amb una creu de color negre per apropar; al botó verd amb un guió per allunyar la imatge; o en les fletxes verdes per a mapes adjacents.


METAR-TAF: